createdAt,value
2018-05-11T00:00:02.610Z,12.1
2018-05-11T00:15:02.822Z,12.1
2018-05-11T00:30:03.139Z,12
2018-05-11T00:45:02.379Z,11.9
2018-05-11T01:00:02.601Z,11.8
2018-05-11T01:15:02.881Z,12
2018-05-11T01:30:02.265Z,11.9
2018-05-11T01:45:02.517Z,11.8
2018-05-11T02:00:02.772Z,11.8
2018-05-11T02:15:03.015Z,11.9
2018-05-11T02:30:02.347Z,11.8
2018-05-11T02:45:02.607Z,11.8
2018-05-11T03:00:02.800Z,11.8
2018-05-11T03:15:03.073Z,11.7
2018-05-11T03:30:02.375Z,11.8
2018-05-11T03:45:02.605Z,11.6
2018-05-11T04:00:02.879Z,11.8
2018-05-11T04:15:03.111Z,11.7
2018-05-11T04:30:02.443Z,11.8
2018-05-11T04:45:02.671Z,11.9
2018-05-11T05:00:02.930Z,11.9
2018-05-11T05:15:03.236Z,12
2018-05-11T05:30:02.564Z,12.2
2018-05-11T05:45:02.800Z,12.2
2018-05-11T06:00:03.156Z,12.3
2018-05-11T06:15:02.411Z,12.5
2018-05-11T06:30:02.896Z,12.8
2018-05-11T06:45:03.131Z,13.3
2018-05-11T07:00:02.432Z,13.6
2018-05-11T07:15:02.774Z,13.8
2018-05-11T07:30:03.097Z,13.1
2018-05-11T07:45:02.445Z,14.5
2018-05-11T08:00:02.756Z,14.6
2018-05-11T08:15:03.013Z,15.7
2018-05-11T08:30:02.315Z,15.4
2018-05-11T08:45:02.672Z,15.4
2018-05-11T09:00:02.889Z,15.4
2018-05-11T09:15:03.148Z,15.1
2018-05-11T09:30:02.534Z,15.2
2018-05-11T09:45:02.873Z,15.4
2018-05-11T10:00:03.124Z,15.2
2018-05-11T10:15:02.363Z,16.4
2018-05-11T10:30:02.735Z,17.8
2018-05-11T10:45:03.000Z,17.9
2018-05-11T11:00:02.300Z,18.1
2018-05-11T11:15:02.675Z,17
2018-05-11T11:30:03.065Z,19.1
2018-05-11T11:45:02.526Z,19.9
2018-05-11T12:00:03.999Z,21.2
2018-05-11T12:15:02.343Z,21.8
2018-05-11T12:30:02.745Z,22.7
2018-05-11T12:45:03.029Z,22.7
2018-05-11T13:00:02.362Z,23.4
2018-05-11T13:15:02.646Z,23.8
2018-05-11T13:30:02.967Z,23.3
2018-05-11T13:45:02.185Z,23.8
2018-05-11T14:00:02.383Z,23.5
2018-05-11T14:15:02.644Z,23.8
2018-05-11T14:30:03.035Z,23.2
2018-05-11T14:45:02.365Z,23
2018-05-11T15:00:02.593Z,22.4
2018-05-11T15:15:02.863Z,22.1
2018-05-11T15:30:03.212Z,22.1
2018-05-11T15:45:02.533Z,21.8
2018-05-11T16:00:02.761Z,21.5
2018-05-11T16:15:03.001Z,21.2
2018-05-11T16:30:02.288Z,20.9
2018-05-11T16:45:02.503Z,20.9
2018-05-11T17:00:02.797Z,20.3
2018-05-11T17:15:02.993Z,20.1
2018-05-11T17:30:02.364Z,20
2018-05-11T17:45:02.706Z,19.8
2018-05-11T18:00:02.911Z,19.2
2018-05-11T18:15:03.110Z,18.6
2018-05-11T18:30:02.493Z,17.9
2018-05-11T18:45:02.704Z,17.4
2018-05-11T19:00:02.908Z,16.6
2018-05-11T19:15:03.137Z,16.3
2018-05-11T19:30:02.443Z,16.1
2018-05-11T19:45:02.681Z,15.7
2018-05-11T20:00:02.933Z,15.2
2018-05-11T20:15:02.171Z,14.8
2018-05-11T20:30:02.509Z,14.5
2018-05-11T20:45:02.760Z,14.4
2018-05-11T21:00:02.988Z,14.1
2018-05-11T21:15:02.269Z,14.2
2018-05-11T21:30:02.577Z,14.3
2018-05-11T21:45:02.775Z,14.2
2018-05-11T22:00:03.080Z,14.2
2018-05-11T22:15:02.304Z,13.7
2018-05-11T22:30:02.704Z,13.4
2018-05-11T22:45:02.900Z,13.3
2018-05-11T23:00:03.207Z,12.9
2018-05-11T23:15:02.426Z,13.1
2018-05-11T23:30:02.834Z,12.8
2018-05-11T23:45:03.069Z,12.5
